Time;durP1;ratioP1;P1;durP2;ratioP2;P2;SDS_P1;SDS_P2;PMS_P1;PMS_P2;Temp;Humidity;BMP_temperature;BMP_pressure;BME280_temperature;BME280_humidity;BME280_pressure;Samples;Min_cycle;Max_cycle;Signal;HPM_P1;HPM_P2
2023/07/16 00:01:26;;;;;;;4.15;1.42;;;21.80;84.40;;;;;;10383310;28;20021;-66
2023/07/16 00:06:27;;;;;;;4.13;1.30;;;21.80;84.30;;;;;;10381933;28;20524;-66
2023/07/16 00:11:28;;;;;;;2.90;1.30;;;21.80;84.30;;;;;;10388176;28;20029;-66
2023/07/16 00:16:28;;;;;;;4.82;1.38;;;21.70;84.20;;;;;;10379740;28;20113;-66
2023/07/16 00:21:29;;;;;;;2.72;1.30;;;21.70;84.20;;;;;;10384192;28;20869;-66
2023/07/16 00:26:30;;;;;;;3.67;1.15;;;21.70;84.20;;;;;;10388933;28;20509;-66
2023/07/16 00:31:31;;;;;;;3.17;1.35;;;21.70;84.20;;;;;;10383729;28;20051;-66
2023/07/16 00:36:31;;;;;;;3.70;1.42;;;21.60;84.10;;;;;;10379419;28;20038;-66
2023/07/16 00:41:32;;;;;;;3.72;1.40;;;21.60;84.10;;;;;;10376720;28;20022;-66
2023/07/16 00:46:33;;;;;;;3.50;1.52;;;21.60;84.00;;;;;;10383334;28;20029;-66
2023/07/16 00:51:34;;;;;;;2.78;1.30;;;21.60;84.00;;;;;;10374552;28;20072;-66
2023/07/16 00:56:37;;;;;;;5.47;1.30;;;21.50;83.90;;;;;;10384910;28;20026;-66
2023/07/16 01:01:39;;;;;;;2.72;1.20;;;21.50;83.90;;;;;;10379013;28;20017;-66
2023/07/16 01:06:44;;;;;;;4.55;1.27;;;21.50;83.90;;;;;;10379493;28;20029;-66
2023/07/16 01:11:46;;;;;;;4.82;1.50;;;21.50;84.00;;;;;;10382509;28;20033;-66
2023/07/16 01:16:46;;;;;;;3.80;1.45;;;21.50;84.20;;;;;;10382643;28;20037;-66
2023/07/16 01:22:16;;;;;;;3.90;1.40;;;21.40;84.20;;;;;;10384613;28;20080;-66
2023/07/16 01:27:54;;;;;;;3.85;1.48;;;21.40;84.20;;;;;;10380863;28;20373;-66
2023/07/16 01:32:56;;;;;;;3.65;1.45;;;21.30;84.20;;;;;;10381465;28;20330;-66
2023/07/16 01:37:57;;;;;;;3.13;1.45;;;21.30;84.30;;;;;;10383610;28;20117;-66
2023/07/16 01:42:58;;;;;;;2.03;1.30;;;21.30;84.30;;;;;;10387207;28;20028;-66
2023/07/16 01:48:30;;;;;;;4.25;1.55;;;21.30;84.30;;;;;;10375294;28;20030;-66
2023/07/16 01:53:31;;;;;;;5.75;1.80;;;21.30;84.00;;;;;;10383295;28;20541;-67
2023/07/16 01:58:32;;;;;;;4.07;2.15;;;21.20;84.00;;;;;;10382166;28;20029;-66
2023/07/16 02:03:32;;;;;;;5.65;1.90;;;21.20;83.90;;;;;;10384137;28;20048;-66
2023/07/16 02:08:33;;;;;;;6.82;1.70;;;21.10;83.90;;;;;;10380881;28;20353;-66
2023/07/16 02:13:33;;;;;;;4.28;1.80;;;21.10;83.80;;;;;;10387288;28;20083;-66
2023/07/16 02:18:34;;;;;;;5.00;1.60;;;21.10;83.80;;;;;;10380909;28;20401;-66
2023/07/16 02:23:35;;;;;;;2.88;1.60;;;21.10;83.70;;;;;;10379905;28;20048;-66
2023/07/16 02:28:35;;;;;;;5.45;1.88;;;21.10;83.60;;;;;;10377684;28;20048;-66
2023/07/16 02:33:36;;;;;;;4.53;1.73;;;21.10;83.60;;;;;;10369393;28;20510;-66
2023/07/16 02:38:36;;;;;;;4.00;1.95;;;21.00;83.50;;;;;;10391725;28;20508;-66
2023/07/16 02:43:37;;;;;;;3.45;1.67;;;21.00;83.50;;;;;;10390138;28;20020;-66
2023/07/16 02:48:39;;;;;;;4.93;1.90;;;21.00;83.50;;;;;;10388306;28;20033;-66
2023/07/16 02:53:39;;;;;;;2.22;1.35;;;21.00;83.40;;;;;;10394437;28;20033;-66
2023/07/16 02:58:40;;;;;;;4.63;2.22;;;20.90;83.40;;;;;;10384394;28;20040;-66
2023/07/16 03:03:45;;;;;;;6.07;2.15;;;20.90;83.40;;;;;;10381020;28;20010;-66
2023/07/16 03:08:46;;;;;;;4.85;2.08;;;20.90;83.30;;;;;;10390439;28;20051;-66
2023/07/16 03:13:46;;;;;;;4.30;2.00;;;20.90;83.30;;;;;;10383279;28;20040;-66
2023/07/16 03:18:48;;;;;;;4.18;2.10;;;20.90;83.40;;;;;;10392906;28;20021;-66
2023/07/16 03:23:48;;;;;;;3.33;2.05;;;20.80;83.30;;;;;;10388409;28;20052;-66
2023/07/16 03:28:49;;;;;;;5.35;2.30;;;20.80;83.30;;;;;;10392371;28;20456;-66
2023/07/16 03:33:49;;;;;;;6.32;3.63;;;20.80;83.30;;;;;;10394315;28;20033;-66
2023/07/16 03:38:50;;;;;;;6.18;1.98;;;20.80;83.30;;;;;;10389126;28;20024;-66
2023/07/16 03:43:51;;;;;;;4.70;1.90;;;20.80;83.30;;;;;;10387712;28;20532;-66
2023/07/16 03:48:54;;;;;;;3.58;2.00;;;20.70;83.20;;;;;;10386562;28;20036;-66
2023/07/16 03:53:54;;;;;;;6.22;2.03;;;20.70;83.20;;;;;;10383757;28;20024;-66
2023/07/16 03:58:55;;;;;;;3.63;2.05;;;20.70;83.30;;;;;;10392703;28;20032;-66
2023/07/16 04:03:55;;;;;;;7.20;2.53;;;20.70;83.20;;;;;;10388212;28;20094;-66
2023/07/16 04:08:56;;;;;;;5.25;2.75;;;20.70;83.20;;;;;;10382521;28;20036;-66
2023/07/16 04:13:57;;;;;;;6.63;2.60;;;20.60;83.20;;;;;;10389831;28;20026;-66
2023/07/16 04:18:57;;;;;;;3.83;1.98;;;20.60;83.20;;;;;;10385311;28;20026;-66
2023/07/16 04:24:06;;;;;;;4.90;2.15;;;20.60;83.20;;;;;;10387721;28;20026;-66
2023/07/16 04:29:06;;;;;;;3.67;2.22;;;20.60;83.30;;;;;;10389043;28;20030;-65
2023/07/16 04:34:07;;;;;;;5.50;2.40;;;20.60;83.30;;;;;;10395574;28;20033;-66
2023/07/16 04:39:07;;;;;;;4.05;1.95;;;20.60;83.30;;;;;;10387579;28;20030;-66
2023/07/16 04:44:08;;;;;;;3.42;2.03;;;20.60;83.30;;;;;;10385195;28;20092;-66
2023/07/16 04:49:09;;;;;;;4.22;2.05;;;20.50;83.20;;;;;;10379094;28;20021;-66
2023/07/16 04:54:10;;;;;;;4.13;2.13;;;20.60;83.30;;;;;;10386219;28;20021;-66
2023/07/16 04:59:10;;;;;;;5.50;2.58;;;20.50;83.20;;;;;;10393115;28;20382;-66
2023/07/16 05:04:11;;;;;;;4.20;2.38;;;20.50;83.20;;;;;;10392860;28;20055;-66
2023/07/16 05:09:12;;;;;;;6.65;2.35;;;20.50;83.30;;;;;;10379043;28;20448;-66
2023/07/16 05:14:12;;;;;;;5.43;2.50;;;20.50;83.30;;;;;;10385309;28;20102;-66
2023/07/16 05:19:13;;;;;;;4.15;1.90;;;20.50;83.20;;;;;;10385344;28;20018;-66
2023/07/16 05:24:13;;;;;;;6.68;2.67;;;20.50;83.30;;;;;;10376224;28;20032;-66
2023/07/16 05:29:14;;;;;;;4.32;2.10;;;20.50;83.30;;;;;;10390306;28;20456;-66
2023/07/16 05:34:15;;;;;;;3.22;2.28;;;20.50;83.30;;;;;;10393306;28;20022;-66
2023/07/16 05:39:15;;;;;;;4.80;1.83;;;20.50;83.20;;;;;;10385627;28;20053;-66
2023/07/16 05:44:16;;;;;;;3.70;2.15;;;20.50;83.20;;;;;;10366617;28;20105;-66
2023/07/16 05:49:17;;;;;;;3.65;2.22;;;20.50;83.20;;;;;;10376773;28;20269;-66
2023/07/16 05:54:17;;;;;;;4.07;2.00;;;20.40;83.20;;;;;;10379129;28;20201;-66
2023/07/16 05:59:18;;;;;;;5.47;2.25;;;20.50;83.30;;;;;;10384467;28;20029;-66
2023/07/16 06:04:19;;;;;;;5.60;2.17;;;20.40;83.20;;;;;;10356521;28;20024;-66
2023/07/16 06:09:19;;;;;;;5.60;2.65;;;20.40;83.20;;;;;;10367366;28;20042;-66
2023/07/16 06:14:20;;;;;;;3.45;2.42;;;20.40;83.20;;;;;;10383628;28;20727;-66
2023/07/16 06:19:21;;;;;;;4.38;2.03;;;20.50;83.30;;;;;;10383945;28;20021;-66
2023/07/16 06:24:21;;;;;;;7.75;2.60;;;20.50;83.20;;;;;;10383473;28;20079;-66
2023/07/16 06:29:22;;;;;;;6.80;2.70;;;20.40;83.20;;;;;;10382493;28;20079;-66
2023/07/16 06:34:24;;;;;;;5.15;2.30;;;20.50;83.20;;;;;;10384012;28;20382;-66
2023/07/16 06:39:24;;;;;;;4.63;2.30;;;20.50;83.20;;;;;;10382272;28;20095;-66
2023/07/16 06:44:25;;;;;;;6.18;2.40;;;20.50;83.20;;;;;;10378761;28;20084;-66
2023/07/16 06:49:26;;;;;;;5.82;2.50;;;20.50;83.10;;;;;;10375961;28;20033;-66
2023/07/16 06:54:26;;;;;;;3.63;2.40;;;20.50;83.10;;;;;;10381022;28;20014;-66
2023/07/16 06:59:27;;;;;;;4.65;2.40;;;20.50;83.10;;;;;;10383578;28;20054;-65
2023/07/16 07:04:28;;;;;;;4.63;2.45;;;20.50;83.00;;;;;;10380977;28;20597;-65
2023/07/16 07:09:29;;;;;;;4.57;2.45;;;20.50;83.60;;;;;;10384174;28;20033;-66
2023/07/16 07:14:29;;;;;;;6.32;2.83;;;20.50;83.00;;;;;;10377204;28;20334;-65
2023/07/16 07:19:32;;;;;;;3.65;2.60;;;20.50;83.00;;;;;;10384023;28;20097;-66
2023/07/16 07:24:32;;;;;;;4.68;2.47;;;20.50;82.90;;;;;;10381687;28;20030;-66
2023/07/16 07:29:33;;;;;;;6.00;2.80;;;20.50;82.90;;;;;;10375247;28;20425;-66
2023/07/16 07:34:33;;;;;;;6.68;2.78;;;20.60;82.90;;;;;;10378584;28;20506;-65
2023/07/16 07:39:34;;;;;;;4.82;2.35;;;20.60;82.80;;;;;;10382342;28;20060;-66
2023/07/16 07:44:35;;;;;;;5.18;2.72;;;20.60;82.80;;;;;;10365577;28;20100;-66
2023/07/16 07:49:35;;;;;;;4.95;2.65;;;20.60;82.80;;;;;;10370689;28;20029;-66
2023/07/16 07:54:36;;;;;;;3.83;2.22;;;20.70;82.80;;;;;;10375185;28;20033;-66
2023/07/16 07:59:36;;;;;;;3.78;2.40;;;20.70;82.70;;;;;;10371815;28;20036;-66
2023/07/16 08:04:37;;;;;;;4.18;2.83;;;20.70;82.60;;;;;;10375144;28;20033;-67
2023/07/16 08:09:38;;;;;;;6.90;3.03;;;20.80;82.60;;;;;;10375834;28;20095;-67
2023/07/16 08:14:38;;;;;;;5.28;2.58;;;20.80;82.40;;;;;;10372245;28;20463;-66
2023/07/16 08:19:39;;;;;;;4.60;2.58;;;20.80;82.40;;;;;;10378844;28;20028;-67
2023/07/16 08:24:39;;;;;;;4.43;2.60;;;20.80;82.40;;;;;;10371097;28;20034;-67
2023/07/16 08:29:40;;;;;;;4.28;2.60;;;20.80;82.40;;;;;;10379650;28;20058;-67
2023/07/16 08:34:41;;;;;;;5.22;2.80;;;20.90;82.50;;;;;;10381088;28;20087;-67
2023/07/16 08:39:41;;;;;;;7.78;3.20;;;20.80;82.40;;;;;;10379909;28;20035;-67
2023/07/16 08:44:42;;;;;;;5.72;2.65;;;20.80;82.50;;;;;;10374375;28;20406;-66
2023/07/16 08:49:56;;;;;;;4.28;2.67;;;20.80;82.50;;;;;;10386934;28;20036;-67
2023/07/16 08:54:57;;;;;;;5.40;2.95;;;20.90;82.50;;;;;;10379562;28;20018;-67
2023/07/16 09:00:00;;;;;;;4.72;2.83;;;21.00;82.40;;;;;;10383751;28;20018;-67
2023/07/16 09:05:01;;;;;;;5.93;2.80;;;21.00;82.30;;;;;;10379835;28;20022;-67
2023/07/16 09:10:01;;;;;;;5.03;3.15;;;21.00;82.20;;;;;;10382963;28;20417;-67
2023/07/16 09:15:02;;;;;;;4.97;2.50;;;21.00;82.20;;;;;;10372743;28;20048;-68
2023/07/16 09:20:03;;;;;;;4.15;2.80;;;21.00;82.30;;;;;;10375352;28;20040;-67
2023/07/16 09:25:08;;;;;;;5.57;2.60;;;21.00;82.40;;;;;;10370791;28;20026;-68
2023/07/16 09:30:15;;;;;;;7.72;3.00;;;21.00;82.40;;;;;;10368062;28;20029;-67
2023/07/16 09:35:17;;;;;;;6.43;3.13;;;21.10;82.40;;;;;;10363600;28;20050;-67
2023/07/16 09:40:18;;;;;;;4.70;2.72;;;21.10;82.20;;;;;;10353489;28;20053;-66
2023/07/16 09:45:19;;;;;;;7.80;2.90;;;21.10;82.20;;;;;;10360837;28;20018;-66
2023/07/16 09:50:24;;;;;;;5.43;2.60;;;21.10;82.00;;;;;;10370806;28;20490;-67
2023/07/16 09:55:25;;;;;;;5.85;2.58;;;21.20;82.00;;;;;;10354543;28;20069;-67
2023/07/16 10:00:27;;;;;;;6.45;3.13;;;21.20;82.10;;;;;;10384145;28;20088;-66
2023/07/16 10:05:28;;;;;;;7.63;3.63;;;21.10;82.20;;;;;;10369194;28;20296;-67
2023/07/16 10:10:43;;;;;;;5.30;3.25;;;21.10;82.30;;;;;;10379552;28;20109;-66
2023/07/16 10:15:53;;;;;;;4.78;2.58;;;21.10;82.40;;;;;;10379419;28;20056;-66
2023/07/16 10:20:59;;;;;;;5.20;2.90;;;21.10;82.40;;;;;;10402853;28;20042;-66
2023/07/16 10:26:05;;;;;;;5.30;2.72;;;21.20;82.40;;;;;;10377913;28;20104;-66
2023/07/16 10:31:16;;;;;;;6.40;3.35;;;21.20;82.40;;;;;;10381940;28;20541;-67
2023/07/16 10:36:20;;;;;;;5.97;3.00;;;21.20;82.30;;;;;;10379978;28;20481;-66
2023/07/16 10:41:21;;;;;;;4.30;2.80;;;21.20;82.20;;;;;;10363312;28;20229;-67
2023/07/16 10:46:25;;;;;;;3.92;2.55;;;21.30;82.20;;;;;;10366619;28;20100;-66
2023/07/16 10:51:26;;;;;;;7.15;3.60;;;21.40;82.20;;;;;;10380560;28;20018;-67
2023/07/16 10:56:27;;;;;;;5.35;2.90;;;21.40;82.00;;;;;;10387672;28;20091;-67
2023/07/16 11:01:30;;;;;;;3.90;2.70;;;21.50;82.00;;;;;;10391828;28;20542;-66
2023/07/16 11:06:30;;;;;;;6.07;2.92;;;21.50;81.90;;;;;;10366862;28;20025;-65
2023/07/16 11:11:31;;;;;;;5.05;2.78;;;21.50;82.00;;;;;;10366515;28;20026;-66
2023/07/16 11:16:36;;;;;;;6.18;3.13;;;21.40;82.10;;;;;;10383084;28;20037;-66
2023/07/16 11:21:37;;;;;;;6.68;3.58;;;21.50;82.20;;;;;;10377241;28;20057;-66
2023/07/16 11:26:37;;;;;;;10.82;3.53;;;21.40;82.30;;;;;;10359011;28;20026;-66
2023/07/16 11:31:41;;;;;;;6.53;3.33;;;21.40;82.40;;;;;;10382171;28;20477;-65
2023/07/16 11:36:42;;;;;;;7.97;2.92;;;21.40;82.60;;;;;;10384880;28;20474;-66
2023/07/16 11:41:53;;;;;;;6.97;3.22;;;21.40;82.60;;;;;;10388336;28;20028;-64
2023/07/16 11:46:53;;;;;;;7.60;3.28;;;21.40;82.50;;;;;;10368639;28;20014;-65
2023/07/16 11:51:54;;;;;;;4.32;2.97;;;21.40;82.50;;;;;;10379151;28;20092;-65
2023/07/16 11:56:54;;;;;;;7.43;3.47;;;21.50;82.40;;;;;;10378652;28;20058;-65
2023/07/16 12:01:55;;;;;;;5.82;3.17;;;21.50;82.30;;;;;;10379021;28;20021;-65
2023/07/16 12:06:56;;;;;;;5.90;3.47;;;21.50;82.30;;;;;;10370834;28;20026;-65
2023/07/16 12:11:57;;;;;;;5.78;2.92;;;21.50;82.50;;;;;;10370744;28;20494;-66
2023/07/16 12:16:58;;;;;;;6.40;3.25;;;21.40;82.60;;;;;;10380128;28;20076;-65
2023/07/16 12:21:59;;;;;;;5.53;2.60;;;21.50;82.70;;;;;;10383723;28;20116;-65
2023/07/16 12:26:59;;;;;;;4.35;2.97;;;21.40;82.70;;;;;;10384751;28;20079;-66
2023/07/16 12:32:00;;;;;;;6.85;3.20;;;21.50;82.80;;;;;;10365645;28;20506;-65
2023/07/16 12:37:01;;;;;;;5.53;3.15;;;21.40;82.70;;;;;;10369381;28;20573;-66
2023/07/16 12:42:01;;;;;;;8.77;3.72;;;21.50;82.80;;;;;;10373588;28;20022;-67
2023/07/16 12:47:02;;;;;;;3.95;2.50;;;21.50;82.70;;;;;;10379768;28;20084;-66
2023/07/16 12:52:03;;;;;;;6.15;2.80;;;21.40;82.60;;;;;;10380908;28;20516;-66
2023/07/16 12:57:04;;;;;;;5.55;2.67;;;21.40;82.60;;;;;;10383818;28;20034;-66
2023/07/16 13:02:06;;;;;;;5.80;3.10;;;21.40;82.60;;;;;;10381336;28;20022;-67
2023/07/16 13:07:06;;;;;;;4.47;2.33;;;21.40;82.60;;;;;;10372438;28;20442;-66
2023/07/16 13:12:07;;;;;;;3.17;2.30;;;21.50;82.60;;;;;;10372775;28;20124;-66
2023/07/16 13:17:08;;;;;;;3.67;2.42;;;21.50;82.50;;;;;;10376010;28;20049;-66
2023/07/16 13:22:09;;;;;;;6.35;2.53;;;21.50;82.50;;;;;;10377488;28;20531;-66
2023/07/16 13:27:19;;;;;;;3.40;2.38;;;21.50;82.40;;;;;;10370499;28;20521;-65
2023/07/16 13:32:20;;;;;;;4.60;2.60;;;21.50;82.20;;;;;;10380273;28;20132;-68
2023/07/16 13:37:21;;;;;;;6.05;2.40;;;21.60;82.10;;;;;;10383602;28;20264;-68
2023/07/16 13:42:21;;;;;;;3.40;2.00;;;21.70;81.90;;;;;;10377295;28;20033;-67
2023/07/16 13:47:23;;;;;;;5.38;2.22;;;21.70;81.80;;;;;;10377389;28;20025;-68
2023/07/16 13:52:23;;;;;;;4.40;2.20;;;21.70;81.80;;;;;;10378215;28;20482;-67
2023/07/16 13:57:24;;;;;;;5.10;1.70;;;21.70;81.80;;;;;;10384501;28;20024;-68
2023/07/16 14:02:25;;;;;;;3.47;1.90;;;21.60;81.80;;;;;;10383237;28;20026;-68
2023/07/16 14:07:25;;;;;;;3.05;2.00;;;21.70;81.60;;;;;;10365622;28;20545;-66
2023/07/16 14:12:26;;;;;;;3.72;1.90;;;21.90;81.50;;;;;;10368617;28;20026;-67
2023/07/16 14:17:27;;;;;;;3.67;1.65;;;21.90;81.20;;;;;;10367749;28;20029;-67
2023/07/16 14:22:27;;;;;;;2.25;1.58;;;21.90;81.20;;;;;;10380555;28;20018;-67
2023/07/16 14:27:28;;;;;;;3.03;1.83;;;21.90;81.30;;;;;;10367607;28;20665;-67
2023/07/16 14:32:31;;;;;;;3.53;1.80;;;21.90;81.50;;;;;;10370054;28;20402;-66
2023/07/16 14:37:32;;;;;;;3.00;1.65;;;21.90;81.50;;;;;;10381449;28;20032;-67
2023/07/16 14:42:32;;;;;;;4.97;1.83;;;21.80;81.50;;;;;;10376239;28;20030;-69
2023/07/16 14:47:33;;;;;;;5.60;2.67;;;21.90;81.70;;;;;;10387543;28;20049;-69
2023/07/16 14:52:36;;;;;;;6.25;2.22;;;21.90;81.80;;;;;;10383592;28;20101;-67
2023/07/16 14:57:36;;;;;;;3.58;2.15;;;21.80;82.10;;;;;;10370910;28;20029;-70
2023/07/16 15:02:38;;;;;;;6.80;3.38;;;21.70;82.60;;;;;;10368385;28;20057;-69
2023/07/16 15:07:38;;;;;;;3.33;1.67;;;21.60;82.80;;;;;;10362323;28;20398;-69
2023/07/16 15:12:40;;;;;;;3.97;1.60;;;21.50;82.70;;;;;;10372864;28;20038;-69
2023/07/16 15:17:41;;;;;;;5.53;1.90;;;21.60;82.90;;;;;;10372451;28;20598;-69
2023/07/16 15:22:41;;;;;;;3.97;1.52;;;21.50;82.90;;;;;;10372535;28;20026;-69
2023/07/16 15:27:42;;;;;;;6.47;1.77;;;21.70;82.80;;;;;;10373820;28;20029;-69
2023/07/16 15:32:43;;;;;;;4.75;1.70;;;21.90;82.40;;;;;;10362225;28;20045;-70
2023/07/16 15:37:43;;;;;;;4.82;1.73;;;22.10;82.20;;;;;;10367946;28;20037;-69
2023/07/16 15:42:44;;;;;;;6.53;1.55;;;22.10;82.30;;;;;;10362944;28;20037;-68
2023/07/16 15:47:46;;;;;;;6.72;1.48;;;21.90;82.40;;;;;;10375616;28;20516;-68
2023/07/16 15:52:51;;;;;;;4.88;1.42;;;21.80;82.70;;;;;;10377890;28;20032;-70
2023/07/16 15:57:53;;;;;;;4.47;1.60;;;21.80;82.60;;;;;;10373123;28;20030;-69
2023/07/16 16:02:55;;;;;;;4.45;1.52;;;21.80;82.40;;;;;;10376203;28;20035;-69
2023/07/16 16:08:18;;;;;;;5.50;1.80;;;22.00;82.00;;;;;;10402821;28;20018;-69
2023/07/16 16:13:23;;;;;;;5.57;1.40;;;22.20;81.70;;;;;;10378038;28;20113;-69
2023/07/16 16:18:24;;;;;;;4.45;1.50;;;22.30;81.70;;;;;;10374082;28;20494;-70
2023/07/16 16:23:25;;;;;;;6.43;1.40;;;22.30;81.50;;;;;;10376490;28;20088;-70
2023/07/16 16:28:25;;;;;;;7.43;2.15;;;22.20;81.30;;;;;;10374197;28;20079;-68
2023/07/16 16:33:26;;;;;;;5.53;1.40;;;22.10;81.60;;;;;;10364942;28;20486;-67
2023/07/16 16:38:26;;;;;;;8.75;1.65;;;21.90;81.90;;;;;;10376558;28;20045;-65
2023/07/16 16:43:27;;;;;;;5.53;1.65;;;21.90;82.30;;;;;;10368716;28;20478;-65
2023/07/16 16:48:30;;;;;;;6.70;1.85;;;21.80;82.50;;;;;;10371021;28;20157;-65
2023/07/16 16:53:31;;;;;;;8.02;1.60;;;21.70;82.70;;;;;;10377458;28;20432;-65
2023/07/16 16:58:31;;;;;;;6.05;1.52;;;21.70;83.10;;;;;;10371097;28;20015;-65
2023/07/16 17:03:32;;;;;;;7.95;2.00;;;21.70;83.30;;;;;;10375816;28;20524;-65
2023/07/16 17:08:33;;;;;;;6.75;1.77;;;21.70;83.40;;;;;;10379615;28;20026;-65
2023/07/16 17:13:33;;;;;;;3.00;1.10;;;21.70;83.50;;;;;;10376604;28;20072;-65
2023/07/16 17:18:34;;;;;;;7.20;1.77;;;21.70;83.60;;;;;;10376089;28;20430;-65
2023/07/16 17:23:35;;;;;;;7.05;1.80;;;21.80;83.70;;;;;;10376323;28;20541;-65
2023/07/16 17:28:36;;;;;;;4.55;1.67;;;21.70;83.80;;;;;;10374697;28;20555;-64
2023/07/16 17:33:36;;;;;;;7.65;1.80;;;21.80;83.90;;;;;;10376800;28;20438;-65
2023/07/16 17:38:37;;;;;;;6.22;1.23;;;21.80;84.00;;;;;;10370489;28;20034;-67
2023/07/16 17:43:38;;;;;;;11.20;2.33;;;21.80;84.00;;;;;;10369142;28;20380;-65
2023/07/16 17:48:38;;;;;;;5.03;1.40;;;21.80;84.20;;;;;;10373186;28;20024;-65
2023/07/16 17:53:39;;;;;;;5.55;1.40;;;21.80;84.20;;;;;;10367791;28;20077;-65
2023/07/16 17:58:40;;;;;;;3.38;1.50;;;21.80;84.30;;;;;;10378119;28;20038;-66
2023/07/16 18:03:41;;;;;;;5.07;1.40;;;21.80;84.30;;;;;;10377176;28;20049;-66
2023/07/16 18:08:42;;;;;;;4.10;1.40;;;21.80;84.30;;;;;;10376757;28;20104;-65
2023/07/16 18:13:42;;;;;;;3.90;1.20;;;21.70;84.50;;;;;;10366962;28;20454;-65
2023/07/16 18:18:43;;;;;;;4.85;1.55;;;21.70;84.50;;;;;;10357885;28;20029;-65
2023/07/16 18:23:44;;;;;;;5.78;1.60;;;21.80;84.70;;;;;;10369809;28;20145;-65
2023/07/16 18:28:44;;;;;;;3.80;1.40;;;21.70;84.70;;;;;;10367022;28;20400;-65
2023/07/16 18:33:45;;;;;;;3.55;1.60;;;21.70;84.80;;;;;;10363760;28;20459;-65
2023/07/16 18:38:45;;;;;;;4.20;1.38;;;21.70;85.00;;;;;;10367338;28;20041;-66
2023/07/16 18:43:46;;;;;;;3.30;1.30;;;21.70;85.00;;;;;;10365299;28;20028;-64
2023/07/16 18:48:47;;;;;;;4.20;1.20;;;21.70;85.00;;;;;;10365864;28;20173;-65
2023/07/16 18:53:47;;;;;;;3.38;1.45;;;21.60;85.00;;;;;;10374748;28;20029;-65
2023/07/16 18:58:48;;;;;;;3.28;1.30;;;21.70;85.10;;;;;;10395814;28;20041;-64
2023/07/16 19:03:50;;;;;;;3.20;1.20;;;21.60;85.10;;;;;;10366969;28;20026;-65
2023/07/16 19:08:51;;;;;;;4.03;1.45;;;21.70;85.20;;;;;;10371108;28;20505;-65
2023/07/16 19:13:53;;;;;;;5.22;1.58;;;21.60;85.30;;;;;;10369975;28;20068;-65
2023/07/16 19:18:53;;;;;;;2.72;1.40;;;21.60;85.40;;;;;;10375631;28;20053;-66
2023/07/16 19:23:54;;;;;;;4.30;1.55;;;21.60;85.40;;;;;;10381662;28;20520;-65
2023/07/16 19:28:55;;;;;;;2.17;1.10;;;21.50;85.50;;;;;;10382451;28;20024;-65
2023/07/16 19:33:56;;;;;;;3.95;1.30;;;21.50;85.50;;;;;;10374514;28;20036;-66
2023/07/16 19:38:57;;;;;;;5.80;1.40;;;21.50;85.60;;;;;;10373518;28;20386;-65
2023/07/16 19:43:57;;;;;;;2.80;1.20;;;21.50;85.70;;;;;;10405949;28;20018;-65
2023/07/16 19:48:59;;;;;;;2.92;1.30;;;21.50;85.80;;;;;;10376810;28;20030;-65
2023/07/16 19:53:59;;;;;;;5.10;1.45;;;21.40;85.80;;;;;;10379492;28;20079;-65
2023/07/16 19:59:00;;;;;;;3.40;1.38;;;21.40;85.90;;;;;;10414519;28;20087;-65
2023/07/16 20:04:00;;;;;;;3.53;1.40;;;21.40;86.00;;;;;;10380758;28;20017;-66
2023/07/16 20:09:04;;;;;;;3.38;1.30;;;21.40;86.00;;;;;;10373840;28;20053;-65
2023/07/16 20:14:05;;;;;;;3.08;1.38;;;21.30;86.10;;;;;;10371948;28;20087;-64
2023/07/16 20:19:06;;;;;;;5.10;1.65;;;21.30;86.10;;;;;;10376289;28;20080;-65
2023/07/16 20:24:06;;;;;;;5.18;1.52;;;21.30;86.20;;;;;;10378566;28;20025;-65
2023/07/16 20:29:07;;;;;;;3.22;1.50;;;21.30;86.30;;;;;;10378821;28;20037;-66
2023/07/16 20:34:08;;;;;;;3.85;1.52;;;21.30;86.30;;;;;;10377913;28;20036;-64
2023/07/16 20:39:09;;;;;;;2.10;1.23;;;21.20;86.30;;;;;;10375675;28;20227;-64
2023/07/16 20:44:10;;;;;;;3.20;1.40;;;21.20;86.30;;;;;;10368721;28;20026;-65
2023/07/16 20:49:11;;;;;;;3.08;1.10;;;21.20;86.40;;;;;;10377515;28;20022;-65
2023/07/16 20:54:11;;;;;;;4.07;1.33;;;21.10;86.30;;;;;;10372708;28;20227;-65
2023/07/16 20:59:12;;;;;;;3.50;1.45;;;21.10;86.30;;;;;;10376604;28;20408;-64
2023/07/16 21:04:13;;;;;;;4.95;1.55;;;21.10;86.40;;;;;;10381988;28;20489;-65
2023/07/16 21:09:13;;;;;;;3.58;1.60;;;21.10;86.40;;;;;;10361859;28;20021;-65
2023/07/16 21:14:14;;;;;;;2.38;1.25;;;21.10;86.40;;;;;;10371287;28;20033;-66
2023/07/16 21:19:15;;;;;;;3.78;1.30;;;21.10;86.40;;;;;;10371639;28;20651;-65
2023/07/16 21:24:15;;;;;;;5.63;1.95;;;21.10;86.50;;;;;;10355871;28;20382;-64
2023/07/16 21:29:16;;;;;;;3.72;1.75;;;21.00;86.50;;;;;;10357094;28;20045;-64
2023/07/16 21:34:17;;;;;;;3.90;1.63;;;21.00;86.50;;;;;;10360456;28;20117;-66
2023/07/16 21:39:17;;;;;;;4.45;1.52;;;21.00;86.50;;;;;;10359174;28;20102;-65
2023/07/16 21:44:18;;;;;;;3.65;1.33;;;21.00;86.60;;;;;;10356143;28;20021;-65
2023/07/16 21:49:19;;;;;;;3.15;1.40;;;21.00;86.80;;;;;;10369318;28;20032;-65
2023/07/16 21:54:20;;;;;;;3.53;1.48;;;21.00;86.80;;;;;;10373049;28;20030;-65
2023/07/16 21:59:21;;;;;;;4.45;1.58;;;21.00;87.00;;;;;;10366270;28;20154;-64
2023/07/16 22:04:21;;;;;;;2.80;1.42;;;20.90;87.00;;;;;;10366164;28;20551;-65
2023/07/16 22:09:22;;;;;;;3.28;1.63;;;20.90;87.10;;;;;;10371043;28;20049;-65
2023/07/16 22:14:23;;;;;;;3.22;1.52;;;20.90;87.20;;;;;;10367631;28;20037;-65
2023/07/16 22:19:23;;;;;;;4.00;1.70;;;20.90;87.30;;;;;;10371696;28;20096;-65
2023/07/16 22:24:24;;;;;;;2.63;1.52;;;20.90;87.30;;;;;;10368958;28;20026;-65
2023/07/16 22:29:25;;;;;;;3.50;1.67;;;20.90;87.40;;;;;;10368466;28;20657;-65
2023/07/16 22:34:25;;;;;;;3.90;1.30;;;20.80;87.30;;;;;;10368940;28;20033;-65
2023/07/16 22:39:26;;;;;;;3.25;1.67;;;20.80;87.30;;;;;;10365260;28;20084;-64
2023/07/16 22:44:27;;;;;;;2.72;1.48;;;20.80;87.30;;;;;;10367328;28;20029;-65
2023/07/16 22:49:27;;;;;;;2.42;1.52;;;20.80;87.30;;;;;;10376381;28;20066;-65
2023/07/16 22:54:28;;;;;;;2.00;1.42;;;20.80;87.30;;;;;;10380323;28;20151;-64
2023/07/16 22:59:28;;;;;;;3.60;1.63;;;20.80;87.30;;;;;;10380324;28;20033;-65
2023/07/16 23:04:29;;;;;;;3.30;1.35;;;20.70;87.20;;;;;;10380519;28;20020;-65
2023/07/16 23:09:30;;;;;;;3.38;1.70;;;20.70;87.10;;;;;;10380833;28;20026;-65
2023/07/16 23:14:34;;;;;;;3.00;1.70;;;20.70;87.10;;;;;;10376702;28;20036;-65
2023/07/16 23:19:34;;;;;;;3.55;1.42;;;20.70;87.10;;;;;;10381987;28;20029;-65
2023/07/16 23:24:35;;;;;;;2.38;1.20;;;20.70;87.00;;;;;;10377301;28;20028;-65
2023/07/16 23:29:38;;;;;;;3.40;1.52;;;20.70;87.00;;;;;;10373740;28;20049;-64
2023/07/16 23:34:39;;;;;;;3.53;1.40;;;20.70;86.90;;;;;;10381771;28;20026;-65
2023/07/16 23:39:40;;;;;;;2.30;1.30;;;20.70;87.00;;;;;;10379515;28;20026;-65
2023/07/16 23:44:40;;;;;;;2.90;1.50;;;20.60;86.90;;;;;;10374621;28;20505;-64
2023/07/16 23:49:41;;;;;;;1.92;1.38;;;20.60;86.90;;;;;;10384000;28;20470;-65
2023/07/16 23:54:41;;;;;;;3.15;1.20;;;20.60;86.90;;;;;;10384248;28;20103;-65
2023/07/16 23:59:42;;;;;;;3.13;1.50;;;20.60;86.90;;;;;;10388492;28;20518;-65
